sensor_id;sensor_type;location;lat;lon;timestamp;P1;durP1;ratioP1;P2;durP2;ratioP2
47922;SDS011;33688;44.354;9.228;2022-08-05T00:00:22;0.65;;;0.65;;
47922;SDS011;33688;44.354;9.228;2022-08-05T00:02:47;0.47;;;0.47;;
47922;SDS011;33688;44.354;9.228;2022-08-05T00:05:13;0.73;;;0.73;;
47922;SDS011;33688;44.354;9.228;2022-08-05T00:07:41;0.60;;;0.60;;
47922;SDS011;33688;44.354;9.228;2022-08-05T00:10:07;0.75;;;0.75;;
47922;SDS011;33688;44.354;9.228;2022-08-05T00:12:33;0.55;;;0.55;;
47922;SDS011;33688;44.354;9.228;2022-08-05T00:14:58;0.50;;;0.50;;
47922;SDS011;33688;44.354;9.228;2022-08-05T00:17:27;0.80;;;0.65;;
47922;SDS011;33688;44.354;9.228;2022-08-05T00:19:52;0.63;;;0.63;;
47922;SDS011;33688;44.354;9.228;2022-08-05T00:22:18;0.75;;;0.75;;
47922;SDS011;33688;44.354;9.228;2022-08-05T00:24:43;0.50;;;0.50;;
47922;SDS011;33688;44.354;9.228;2022-08-05T00:27:12;0.70;;;0.70;;
47922;SDS011;33688;44.354;9.228;2022-08-05T00:29:37;0.50;;;0.50;;
47922;SDS011;33688;44.354;9.228;2022-08-05T00:32:03;0.93;;;0.70;;
47922;SDS011;33688;44.354;9.228;2022-08-05T00:34:30;0.85;;;0.85;;
47922;SDS011;33688;44.354;9.228;2022-08-05T00:36:56;0.50;;;0.50;;
47922;SDS011;33688;44.354;9.228;2022-08-05T00:39:22;0.70;;;0.60;;
47922;SDS011;33688;44.354;9.228;2022-08-05T00:41:50;0.75;;;0.65;;
47922;SDS011;33688;44.354;9.228;2022-08-05T00:44:16;0.65;;;0.65;;
47922;SDS011;33688;44.354;9.228;2022-08-05T00:46:42;0.52;;;0.52;;
47922;SDS011;33688;44.354;9.228;2022-08-05T00:49:07;0.65;;;0.60;;
47922;SDS011;33688;44.354;9.228;2022-08-05T00:51:33;0.70;;;0.70;;
47922;SDS011;33688;44.354;9.228;2022-08-05T00:53:59;0.70;;;0.70;;
47922;SDS011;33688;44.354;9.228;2022-08-05T00:56:27;0.73;;;0.73;;
47922;SDS011;33688;44.354;9.228;2022-08-05T00:58:52;0.77;;;0.77;;
47922;SDS011;33688;44.354;9.228;2022-08-05T01:01:21;0.75;;;0.73;;
47922;SDS011;33688;44.354;9.228;2022-08-05T01:03:47;0.73;;;0.70;;
47922;SDS011;33688;44.354;9.228;2022-08-05T01:06:15;0.60;;;0.60;;
47922;SDS011;33688;44.354;9.228;2022-08-05T01:08:41;0.70;;;0.70;;
47922;SDS011;33688;44.354;9.228;2022-08-05T01:11:11;0.60;;;0.60;;
47922;SDS011;33688;44.354;9.228;2022-08-05T01:16:26;0.40;;;0.40;;
47922;SDS011;33688;44.354;9.228;2022-08-05T01:19:05;0.95;;;0.70;;
47922;SDS011;33688;44.354;9.228;2022-08-05T01:24:44;0.95;;;0.70;;
47922;SDS011;33688;44.354;9.228;2022-08-05T01:30:20;0.60;;;0.60;;
47922;SDS011;33688;44.354;9.228;2022-08-05T01:32:46;0.50;;;0.50;;
47922;SDS011;33688;44.354;9.228;2022-08-05T01:35:15;0.70;;;0.70;;
47922;SDS011;33688;44.354;9.228;2022-08-05T01:37:46;0.52;;;0.52;;
47922;SDS011;33688;44.354;9.228;2022-08-05T01:40:14;0.68;;;0.68;;
47922;SDS011;33688;44.354;9.228;2022-08-05T01:42:42;0.50;;;0.50;;
47922;SDS011;33688;44.354;9.228;2022-08-05T01:45:09;0.70;;;0.60;;
47922;SDS011;33688;44.354;9.228;2022-08-05T01:47:38;0.65;;;0.65;;
47922;SDS011;33688;44.354;9.228;2022-08-05T01:50:05;0.57;;;0.52;;
47922;SDS011;33688;44.354;9.228;2022-08-05T01:52:36;0.50;;;0.50;;
47922;SDS011;33688;44.354;9.228;2022-08-05T01:55:04;0.60;;;0.60;;
47922;SDS011;33688;44.354;9.228;2022-08-05T01:57:35;0.68;;;0.68;;
47922;SDS011;33688;44.354;9.228;2022-08-05T02:00:04;0.60;;;0.60;;
47922;SDS011;33688;44.354;9.228;2022-08-05T02:02:32;0.75;;;0.75;;
47922;SDS011;33688;44.354;9.228;2022-08-05T02:05:00;0.57;;;0.57;;
47922;SDS011;33688;44.354;9.228;2022-08-05T02:07:31;1.80;;;0.55;;
47922;SDS011;33688;44.354;9.228;2022-08-05T02:09:57;0.70;;;0.63;;
47922;SDS011;33688;44.354;9.228;2022-08-05T02:15:04;0.73;;;0.70;;
47922;SDS011;33688;44.354;9.228;2022-08-05T02:17:37;0.50;;;0.50;;
47922;SDS011;33688;44.354;9.228;2022-08-05T02:20:06;0.75;;;0.70;;
47922;SDS011;33688;44.354;9.228;2022-08-05T02:22:41;0.60;;;0.60;;
47922;SDS011;33688;44.354;9.228;2022-08-05T02:25:11;0.50;;;0.50;;
47922;SDS011;33688;44.354;9.228;2022-08-05T02:27:46;0.45;;;0.45;;
47922;SDS011;33688;44.354;9.228;2022-08-05T02:30:14;0.40;;;0.40;;
47922;SDS011;33688;44.354;9.228;2022-08-05T02:32:41;0.65;;;0.63;;
47922;SDS011;33688;44.354;9.228;2022-08-05T02:35:11;0.60;;;0.60;;
47922;SDS011;33688;44.354;9.228;2022-08-05T02:37:38;0.55;;;0.55;;
47922;SDS011;33688;44.354;9.228;2022-08-05T02:40:06;1.10;;;0.57;;
47922;SDS011;33688;44.354;9.228;2022-08-05T02:42:32;0.52;;;0.52;;
47922;SDS011;33688;44.354;9.228;2022-08-05T02:44:59;0.77;;;0.77;;
47922;SDS011;33688;44.354;9.228;2022-08-05T02:47:29;0.65;;;0.65;;
47922;SDS011;33688;44.354;9.228;2022-08-05T02:49:56;0.50;;;0.50;;
47922;SDS011;33688;44.354;9.228;2022-08-05T02:52:25;0.47;;;0.47;;
47922;SDS011;33688;44.354;9.228;2022-08-05T02:54:50;0.70;;;0.70;;
47922;SDS011;33688;44.354;9.228;2022-08-05T02:57:19;0.77;;;0.50;;
47922;SDS011;33688;44.354;9.228;2022-08-05T02:59:46;0.70;;;0.70;;
47922;SDS011;33688;44.354;9.228;2022-08-05T03:02:12;0.68;;;0.68;;
47922;SDS011;33688;44.354;9.228;2022-08-05T03:04:39;0.70;;;0.70;;
47922;SDS011;33688;44.354;9.228;2022-08-05T03:07:07;0.60;;;0.60;;
47922;SDS011;33688;44.354;9.228;2022-08-05T03:09:34;0.75;;;0.75;;
47922;SDS011;33688;44.354;9.228;2022-08-05T03:12:04;0.93;;;0.63;;
47922;SDS011;33688;44.354;9.228;2022-08-05T03:14:30;0.50;;;0.50;;
47922;SDS011;33688;44.354;9.228;2022-08-05T03:16:55;0.60;;;0.60;;
47922;SDS011;33688;44.354;9.228;2022-08-05T03:19:21;0.70;;;0.70;;
47922;SDS011;33688;44.354;9.228;2022-08-05T03:21:49;0.50;;;0.50;;
47922;SDS011;33688;44.354;9.228;2022-08-05T03:24:16;0.52;;;0.40;;
47922;SDS011;33688;44.354;9.228;2022-08-05T03:26:47;0.60;;;0.60;;
47922;SDS011;33688;44.354;9.228;2022-08-05T03:29:13;0.70;;;0.70;;
47922;SDS011;33688;44.354;9.228;2022-08-05T03:31:38;0.95;;;0.60;;
47922;SDS011;33688;44.354;9.228;2022-08-05T03:34:04;0.32;;;0.32;;
47922;SDS011;33688;44.354;9.228;2022-08-05T03:36:30;0.50;;;0.50;;
47922;SDS011;33688;44.354;9.228;2022-08-05T03:38:55;0.70;;;0.70;;
47922;SDS011;33688;44.354;9.228;2022-08-05T03:41:24;0.55;;;0.47;;
47922;SDS011;33688;44.354;9.228;2022-08-05T03:43:49;0.40;;;0.40;;
47922;SDS011;33688;44.354;9.228;2022-08-05T03:46:15;1.50;;;0.70;;
47922;SDS011;33688;44.354;9.228;2022-08-05T03:48:40;0.60;;;0.60;;
47922;SDS011;33688;44.354;9.228;2022-08-05T03:51:11;0.52;;;0.52;;
47922;SDS011;33688;44.354;9.228;2022-08-05T03:53:38;0.50;;;0.50;;
47922;SDS011;33688;44.354;9.228;2022-08-05T03:56:05;0.60;;;0.52;;
47922;SDS011;33688;44.354;9.228;2022-08-05T03:58:34;0.80;;;0.70;;
47922;SDS011;33688;44.354;9.228;2022-08-05T04:01:01;0.50;;;0.50;;
47922;SDS011;33688;44.354;9.228;2022-08-05T04:03:29;0.60;;;0.60;;
47922;SDS011;33688;44.354;9.228;2022-08-05T04:06:03;0.50;;;0.50;;
47922;SDS011;33688;44.354;9.228;2022-08-05T04:08:30;0.65;;;0.65;;
47922;SDS011;33688;44.354;9.228;2022-08-05T04:10:57;0.40;;;0.40;;
47922;SDS011;33688;44.354;9.228;2022-08-05T04:13:23;0.65;;;0.65;;
47922;SDS011;33688;44.354;9.228;2022-08-05T04:15:53;0.40;;;0.40;;
47922;SDS011;33688;44.354;9.228;2022-08-05T04:18:20;0.38;;;0.38;;
47922;SDS011;33688;44.354;9.228;2022-08-05T04:20:54;0.60;;;0.60;;
47922;SDS011;33688;44.354;9.228;2022-08-05T04:23:25;0.50;;;0.50;;
47922;SDS011;33688;44.354;9.228;2022-08-05T04:25:52;0.30;;;0.30;;
47922;SDS011;33688;44.354;9.228;2022-08-05T04:28:18;0.40;;;0.40;;
47922;SDS011;33688;44.354;9.228;2022-08-05T04:30:44;0.50;;;0.50;;
47922;SDS011;33688;44.354;9.228;2022-08-05T04:33:10;0.60;;;0.60;;
47922;SDS011;33688;44.354;9.228;2022-08-05T04:35:40;0.52;;;0.50;;
47922;SDS011;33688;44.354;9.228;2022-08-05T04:38:06;0.60;;;0.60;;
47922;SDS011;33688;44.354;9.228;2022-08-05T04:40:32;0.55;;;0.55;;
47922;SDS011;33688;44.354;9.228;2022-08-05T04:42:59;0.55;;;0.55;;
47922;SDS011;33688;44.354;9.228;2022-08-05T04:45:28;0.40;;;0.40;;
47922;SDS011;33688;44.354;9.228;2022-08-05T04:47:53;0.50;;;0.50;;
47922;SDS011;33688;44.354;9.228;2022-08-05T04:50:19;0.50;;;0.50;;
47922;SDS011;33688;44.354;9.228;2022-08-05T04:52:45;0.43;;;0.43;;
47922;SDS011;33688;44.354;9.228;2022-08-05T04:55:13;0.60;;;0.60;;
47922;SDS011;33688;44.354;9.228;2022-08-05T04:57:38;0.40;;;0.40;;
47922;SDS011;33688;44.354;9.228;2022-08-05T05:00:04;0.70;;;0.70;;
47922;SDS011;33688;44.354;9.228;2022-08-05T05:02:30;0.55;;;0.50;;
47922;SDS011;33688;44.354;9.228;2022-08-05T05:04:59;0.45;;;0.45;;
47922;SDS011;33688;44.354;9.228;2022-08-05T05:07:25;0.40;;;0.40;;
47922;SDS011;33688;44.354;9.228;2022-08-05T05:09:53;0.47;;;0.47;;
47922;SDS011;33688;44.354;9.228;2022-08-05T05:12:19;0.40;;;0.40;;
47922;SDS011;33688;44.354;9.228;2022-08-05T05:14:47;0.60;;;0.60;;
47922;SDS011;33688;44.354;9.228;2022-08-05T05:17:13;0.50;;;0.50;;
47922;SDS011;33688;44.354;9.228;2022-08-05T05:19:42;0.50;;;0.50;;
47922;SDS011;33688;44.354;9.228;2022-08-05T05:22:09;0.30;;;0.30;;
47922;SDS011;33688;44.354;9.228;2022-08-05T05:24:38;0.50;;;0.50;;
47922;SDS011;33688;44.354;9.228;2022-08-05T05:27:03;0.50;;;0.50;;
47922;SDS011;33688;44.354;9.228;2022-08-05T05:29:32;0.50;;;0.50;;
47922;SDS011;33688;44.354;9.228;2022-08-05T05:31:58;0.60;;;0.60;;
47922;SDS011;33688;44.354;9.228;2022-08-05T05:34:26;0.50;;;0.50;;
47922;SDS011;33688;44.354;9.228;2022-08-05T05:36:52;0.50;;;0.50;;
47922;SDS011;33688;44.354;9.228;2022-08-05T05:39:17;0.55;;;0.43;;
47922;SDS011;33688;44.354;9.228;2022-08-05T05:41:43;0.40;;;0.40;;
47922;SDS011;33688;44.354;9.228;2022-08-05T05:44:09;0.50;;;0.50;;
47922;SDS011;33688;44.354;9.228;2022-08-05T05:46:34;0.57;;;0.57;;
47922;SDS011;33688;44.354;9.228;2022-08-05T05:49:03;0.60;;;0.60;;
47922;SDS011;33688;44.354;9.228;2022-08-05T05:51:28;0.38;;;0.38;;
47922;SDS011;33688;44.354;9.228;2022-08-05T05:53:54;0.40;;;0.40;;
47922;SDS011;33688;44.354;9.228;2022-08-05T05:56:21;0.60;;;0.60;;
47922;SDS011;33688;44.354;9.228;2022-08-05T05:58:47;0.50;;;0.50;;
47922;SDS011;33688;44.354;9.228;2022-08-05T06:01:13;0.40;;;0.40;;
47922;SDS011;33688;44.354;9.228;2022-08-05T06:03:39;0.43;;;0.43;;
47922;SDS011;33688;44.354;9.228;2022-08-05T06:06:05;0.40;;;0.40;;
47922;SDS011;33688;44.354;9.228;2022-08-05T06:08:31;0.32;;;0.32;;
47922;SDS011;33688;44.354;9.228;2022-08-05T06:10:57;0.40;;;0.40;;
47922;SDS011;33688;44.354;9.228;2022-08-05T06:13:23;0.32;;;0.32;;
47922;SDS011;33688;44.354;9.228;2022-08-05T06:15:48;0.43;;;0.43;;
47922;SDS011;33688;44.354;9.228;2022-08-05T06:18:14;0.50;;;0.50;;
47922;SDS011;33688;44.354;9.228;2022-08-05T06:20:39;0.40;;;0.40;;
47922;SDS011;33688;44.354;9.228;2022-08-05T06:23:05;0.80;;;0.52;;
47922;SDS011;33688;44.354;9.228;2022-08-05T06:25:31;0.45;;;0.45;;
47922;SDS011;33688;44.354;9.228;2022-08-05T06:27:59;0.43;;;0.43;;
47922;SDS011;33688;44.354;9.228;2022-08-05T06:30:27;0.40;;;0.40;;
47922;SDS011;33688;44.354;9.228;2022-08-05T06:32:53;0.40;;;0.40;;
47922;SDS011;33688;44.354;9.228;2022-08-05T06:35:19;0.60;;;0.60;;
47922;SDS011;33688;44.354;9.228;2022-08-05T06:37:44;0.57;;;0.57;;
47922;SDS011;33688;44.354;9.228;2022-08-05T06:40:10;0.40;;;0.40;;
47922;SDS011;33688;44.354;9.228;2022-08-05T06:42:39;0.50;;;0.50;;
47922;SDS011;33688;44.354;9.228;2022-08-05T06:45:05;0.57;;;0.57;;
47922;SDS011;33688;44.354;9.228;2022-08-05T06:47:36;0.60;;;0.60;;
47922;SDS011;33688;44.354;9.228;2022-08-05T06:50:01;0.55;;;0.55;;
47922;SDS011;33688;44.354;9.228;2022-08-05T06:52:30;1.00;;;0.60;;
47922;SDS011;33688;44.354;9.228;2022-08-05T06:54:56;0.65;;;0.65;;
47922;SDS011;33688;44.354;9.228;2022-08-05T06:57:24;0.73;;;0.73;;
47922;SDS011;33688;44.354;9.228;2022-08-05T06:59:50;0.70;;;0.70;;
47922;SDS011;33688;44.354;9.228;2022-08-05T07:02:15;0.60;;;0.60;;
47922;SDS011;33688;44.354;9.228;2022-08-05T07:04:41;4.13;;;0.90;;
47922;SDS011;33688;44.354;9.228;2022-08-05T07:07:06;0.80;;;0.80;;
47922;SDS011;33688;44.354;9.228;2022-08-05T07:09:32;0.70;;;0.70;;
47922;SDS011;33688;44.354;9.228;2022-08-05T07:11:57;0.60;;;0.60;;
47922;SDS011;33688;44.354;9.228;2022-08-05T07:14:23;0.77;;;0.70;;
47922;SDS011;33688;44.354;9.228;2022-08-05T07:17:07;0.55;;;0.55;;
47922;SDS011;33688;44.354;9.228;2022-08-05T07:19:33;1.48;;;0.90;;
47922;SDS011;33688;44.354;9.228;2022-08-05T07:22:02;0.73;;;0.73;;
47922;SDS011;33688;44.354;9.228;2022-08-05T07:24:28;2.67;;;0.80;;
47922;SDS011;33688;44.354;9.228;2022-08-05T07:26:54;0.77;;;0.77;;
47922;SDS011;33688;44.354;9.228;2022-08-05T07:29:19;1.85;;;0.85;;
47922;SDS011;33688;44.354;9.228;2022-08-05T07:31:45;0.90;;;0.75;;
47922;SDS011;33688;44.354;9.228;2022-08-05T07:34:10;3.33;;;0.70;;
47922;SDS011;33688;44.354;9.228;2022-08-05T07:36:36;2.17;;;0.80;;
47922;SDS011;33688;44.354;9.228;2022-08-05T07:39:06;1.05;;;0.63;;
47922;SDS011;33688;44.354;9.228;2022-08-05T07:41:32;2.05;;;0.80;;
47922;SDS011;33688;44.354;9.228;2022-08-05T07:44:02;1.83;;;0.88;;
47922;SDS011;33688;44.354;9.228;2022-08-05T07:46:29;1.00;;;0.60;;
47922;SDS011;33688;44.354;9.228;2022-08-05T07:48:56;1.00;;;0.90;;
47922;SDS011;33688;44.354;9.228;2022-08-05T07:51:23;1.40;;;0.82;;
47922;SDS011;33688;44.354;9.228;2022-08-05T07:53:49;4.93;;;0.70;;
47922;SDS011;33688;44.354;9.228;2022-08-05T07:56:14;1.02;;;0.93;;
47922;SDS011;33688;44.354;9.228;2022-08-05T07:58:40;4.43;;;0.67;;
47922;SDS011;33688;44.354;9.228;2022-08-05T08:01:06;2.00;;;0.82;;
47922;SDS011;33688;44.354;9.228;2022-08-05T08:03:31;1.08;;;0.80;;
47922;SDS011;33688;44.354;9.228;2022-08-05T08:05:57;2.03;;;1.02;;
47922;SDS011;33688;44.354;9.228;2022-08-05T08:08:25;2.50;;;1.23;;
47922;SDS011;33688;44.354;9.228;2022-08-05T08:10:51;3.95;;;1.15;;
47922;SDS011;33688;44.354;9.228;2022-08-05T08:13:22;5.18;;;0.77;;
47922;SDS011;33688;44.354;9.228;2022-08-05T08:15:48;3.08;;;1.23;;
47922;SDS011;33688;44.354;9.228;2022-08-05T08:18:16;6.53;;;1.02;;
47922;SDS011;33688;44.354;9.228;2022-08-05T08:20:42;2.95;;;0.85;;
47922;SDS011;33688;44.354;9.228;2022-08-05T08:23:08;3.47;;;0.98;;
47922;SDS011;33688;44.354;9.228;2022-08-05T08:25:33;2.50;;;0.90;;
47922;SDS011;33688;44.354;9.228;2022-08-05T08:27:59;1.65;;;0.80;;
47922;SDS011;33688;44.354;9.228;2022-08-05T08:30:25;5.50;;;1.10;;
47922;SDS011;33688;44.354;9.228;2022-08-05T08:32:54;1.02;;;0.73;;
47922;SDS011;33688;44.354;9.228;2022-08-05T08:35:20;4.63;;;1.10;;
47922;SDS011;33688;44.354;9.228;2022-08-05T08:37:49;7.05;;;1.23;;
47922;SDS011;33688;44.354;9.228;2022-08-05T08:40:15;2.35;;;1.00;;
47922;SDS011;33688;44.354;9.228;2022-08-05T08:42:44;2.58;;;1.02;;
47922;SDS011;33688;44.354;9.228;2022-08-05T08:45:12;3.15;;;1.20;;
47922;SDS011;33688;44.354;9.228;2022-08-05T08:47:38;2.47;;;0.95;;
47922;SDS011;33688;44.354;9.228;2022-08-05T08:50:04;3.38;;;0.80;;
47922;SDS011;33688;44.354;9.228;2022-08-05T08:52:31;6.53;;;0.90;;
47922;SDS011;33688;44.354;9.228;2022-08-05T08:55:00;4.45;;;0.90;;
47922;SDS011;33688;44.354;9.228;2022-08-05T08:57:27;2.65;;;1.15;;
47922;SDS011;33688;44.354;9.228;2022-08-05T08:59:53;2.45;;;1.00;;
47922;SDS011;33688;44.354;9.228;2022-08-05T09:02:19;4.45;;;1.20;;
47922;SDS011;33688;44.354;9.228;2022-08-05T09:04:48;1.13;;;0.80;;
47922;SDS011;33688;44.354;9.228;2022-08-05T09:07:14;3.50;;;1.15;;
47922;SDS011;33688;44.354;9.228;2022-08-05T09:09:42;2.00;;;0.70;;
47922;SDS011;33688;44.354;9.228;2022-08-05T09:12:08;2.88;;;0.93;;
47922;SDS011;33688;44.354;9.228;2022-08-05T09:14:37;2.38;;;1.02;;
47922;SDS011;33688;44.354;9.228;2022-08-05T09:17:06;1.73;;;1.15;;
47922;SDS011;33688;44.354;9.228;2022-08-05T09:19:34;3.22;;;1.30;;
47922;SDS011;33688;44.354;9.228;2022-08-05T09:22:01;2.22;;;0.90;;
47922;SDS011;33688;44.354;9.228;2022-08-05T09:24:27;5.03;;;1.35;;
47922;SDS011;33688;44.354;9.228;2022-08-05T09:26:54;14.88;;;1.10;;
47922;SDS011;33688;44.354;9.228;2022-08-05T09:29:23;4.75;;;1.00;;
47922;SDS011;33688;44.354;9.228;2022-08-05T09:32:03;6.73;;;1.27;;
47922;SDS011;33688;44.354;9.228;2022-08-05T09:34:45;4.32;;;0.90;;
47922;SDS011;33688;44.354;9.228;2022-08-05T09:37:23;2.97;;;1.10;;
47922;SDS011;33688;44.354;9.228;2022-08-05T09:39:50;2.88;;;1.10;;
47922;SDS011;33688;44.354;9.228;2022-08-05T09:42:20;5.47;;;1.10;;
47922;SDS011;33688;44.354;9.228;2022-08-05T09:44:50;4.25;;;1.17;;
47922;SDS011;33688;44.354;9.228;2022-08-05T09:47:19;2.20;;;0.93;;
47922;SDS011;33688;44.354;9.228;2022-08-05T09:49:48;3.17;;;1.30;;
47922;SDS011;33688;44.354;9.228;2022-08-05T09:54:57;1.95;;;1.35;;
47922;SDS011;33688;44.354;9.228;2022-08-05T09:57:31;1.70;;;1.15;;
47922;SDS011;33688;44.354;9.228;2022-08-05T09:59:58;1.10;;;1.00;;
47922;SDS011;33688;44.354;9.228;2022-08-05T10:02:32;1.45;;;1.10;;
47922;SDS011;33688;44.354;9.228;2022-08-05T10:05:06;2.25;;;1.02;;
47922;SDS011;33688;44.354;9.228;2022-08-05T10:07:44;1.17;;;1.08;;
47922;SDS011;33688;44.354;9.228;2022-08-05T10:10:13;3.72;;;1.17;;
47922;SDS011;33688;44.354;9.228;2022-08-05T10:12:46;1.98;;;1.40;;
47922;SDS011;33688;44.354;9.228;2022-08-05T10:18:30;2.50;;;1.33;;
47922;SDS011;33688;44.354;9.228;2022-08-05T10:23:30;2.30;;;1.10;;
47922;SDS011;33688;44.354;9.228;2022-08-05T10:25:57;2.90;;;1.38;;
47922;SDS011;33688;44.354;9.228;2022-08-05T10:28:25;6.13;;;1.33;;
47922;SDS011;33688;44.354;9.228;2022-08-05T10:30:51;1.60;;;0.88;;
47922;SDS011;33688;44.354;9.228;2022-08-05T10:33:21;1.10;;;0.80;;
47922;SDS011;33688;44.354;9.228;2022-08-05T10:35:51;1.48;;;1.20;;
47922;SDS011;33688;44.354;9.228;2022-08-05T10:38:18;1.63;;;1.05;;
47922;SDS011;33688;44.354;9.228;2022-08-05T10:45:54;1.98;;;1.13;;
47922;SDS011;33688;44.354;9.228;2022-08-05T10:48:30;1.77;;;1.02;;
47922;SDS011;33688;44.354;9.228;2022-08-05T10:50:58;1.65;;;0.80;;
47922;SDS011;33688;44.354;9.228;2022-08-05T10:53:32;1.50;;;0.98;;
47922;SDS011;33688;44.354;9.228;2022-08-05T10:56:05;3.22;;;1.65;;
47922;SDS011;33688;44.354;9.228;2022-08-05T10:58:34;3.63;;;0.70;;
47922;SDS011;33688;44.354;9.228;2022-08-05T11:01:05;1.85;;;1.10;;
47922;SDS011;33688;44.354;9.228;2022-08-05T11:03:31;1.65;;;1.00;;
47922;SDS011;33688;44.354;9.228;2022-08-05T11:06:01;3.28;;;1.10;;
47922;SDS011;33688;44.354;9.228;2022-08-05T11:08:30;2.47;;;0.98;;
47922;SDS011;33688;44.354;9.228;2022-08-05T11:11:14;1.92;;;0.80;;
47922;SDS011;33688;44.354;9.228;2022-08-05T11:14:00;1.13;;;0.90;;
47922;SDS011;33688;44.354;9.228;2022-08-05T11:16:27;1.70;;;0.82;;
47922;SDS011;33688;44.354;9.228;2022-08-05T11:21:50;1.40;;;0.93;;
47922;SDS011;33688;44.354;9.228;2022-08-05T11:24:17;1.10;;;1.00;;
47922;SDS011;33688;44.354;9.228;2022-08-05T11:26:46;1.05;;;0.95;;
47922;SDS011;33688;44.354;9.228;2022-08-05T11:32:26;1.67;;;1.00;;
47922;SDS011;33688;44.354;9.228;2022-08-05T11:34:53;1.40;;;0.73;;
47922;SDS011;33688;44.354;9.228;2022-08-05T11:40:04;1.42;;;1.02;;
47922;SDS011;33688;44.354;9.228;2022-08-05T11:42:30;0.95;;;0.75;;
47922;SDS011;33688;44.354;9.228;2022-08-05T11:45:00;1.90;;;0.85;;
47922;SDS011;33688;44.354;9.228;2022-08-05T11:47:27;1.17;;;0.73;;
47922;SDS011;33688;44.354;9.228;2022-08-05T11:49:55;2.80;;;1.25;;
47922;SDS011;33688;44.354;9.228;2022-08-05T11:52:22;1.35;;;0.73;;
47922;SDS011;33688;44.354;9.228;2022-08-05T11:54:51;1.30;;;0.90;;
47922;SDS011;33688;44.354;9.228;2022-08-05T11:57:17;1.38;;;0.95;;
47922;SDS011;33688;44.354;9.228;2022-08-05T11:59:43;3.53;;;1.10;;
47922;SDS011;33688;44.354;9.228;2022-08-05T12:02:08;1.10;;;1.00;;
47922;SDS011;33688;44.354;9.228;2022-08-05T12:04:45;1.00;;;1.00;;
47922;SDS011;33688;44.354;9.228;2022-08-05T12:07:13;1.30;;;1.00;;
47922;SDS011;33688;44.354;9.228;2022-08-05T12:10:01;1.58;;;0.82;;
47922;SDS011;33688;44.354;9.228;2022-08-05T12:12:25;0.98;;;0.88;;
47922;SDS011;33688;44.354;9.228;2022-08-05T12:14:54;2.10;;;0.90;;
47922;SDS011;33688;44.354;9.228;2022-08-05T12:17:20;1.88;;;1.00;;
47922;SDS011;33688;44.354;9.228;2022-08-05T12:19:49;1.33;;;1.05;;
47922;SDS011;33688;44.354;9.228;2022-08-05T12:22:17;1.50;;;0.90;;
47922;SDS011;33688;44.354;9.228;2022-08-05T12:24:48;1.05;;;0.90;;
47922;SDS011;33688;44.354;9.228;2022-08-05T12:27:20;1.50;;;0.90;;
47922;SDS011;33688;44.354;9.228;2022-08-05T12:29:57;1.52;;;0.95;;
47922;SDS011;33688;44.354;9.228;2022-08-05T12:32:27;1.48;;;0.85;;
47922;SDS011;33688;44.354;9.228;2022-08-05T12:34:56;1.10;;;0.95;;
47922;SDS011;33688;44.354;9.228;2022-08-05T12:37:22;4.88;;;0.80;;
47922;SDS011;33688;44.354;9.228;2022-08-05T12:39:48;3.20;;;1.00;;
47922;SDS011;33688;44.354;9.228;2022-08-05T12:42:18;1.83;;;1.20;;
47922;SDS011;33688;44.354;9.228;2022-08-05T12:44:44;1.88;;;1.25;;
47922;SDS011;33688;44.354;9.228;2022-08-05T12:47:24;1.08;;;0.90;;
47922;SDS011;33688;44.354;9.228;2022-08-05T12:49:51;1.55;;;1.23;;
47922;SDS011;33688;44.354;9.228;2022-08-05T12:52:17;1.27;;;1.08;;
47922;SDS011;33688;44.354;9.228;2022-08-05T12:54:47;3.15;;;1.10;;
47922;SDS011;33688;44.354;9.228;2022-08-05T12:57:13;1.60;;;0.93;;
47922;SDS011;33688;44.354;9.228;2022-08-05T12:59:47;1.92;;;1.17;;
47922;SDS011;33688;44.354;9.228;2022-08-05T13:02:15;2.67;;;1.00;;
47922;SDS011;33688;44.354;9.228;2022-08-05T13:04:44;1.02;;;0.90;;
47922;SDS011;33688;44.354;9.228;2022-08-05T13:07:11;3.38;;;1.10;;
47922;SDS011;33688;44.354;9.228;2022-08-05T13:09:40;1.20;;;1.10;;
47922;SDS011;33688;44.354;9.228;2022-08-05T13:12:16;1.17;;;1.00;;
47922;SDS011;33688;44.354;9.228;2022-08-05T13:14:44;5.60;;;1.50;;
47922;SDS011;33688;44.354;9.228;2022-08-05T13:19:58;2.78;;;1.35;;
47922;SDS011;33688;44.354;9.228;2022-08-05T13:22:34;1.77;;;1.00;;
47922;SDS011;33688;44.354;9.228;2022-08-05T13:25:04;1.90;;;1.08;;
47922;SDS011;33688;44.354;9.228;2022-08-05T13:30:00;3.33;;;1.75;;
47922;SDS011;33688;44.354;9.228;2022-08-05T13:32:25;6.97;;;1.33;;
47922;SDS011;33688;44.354;9.228;2022-08-05T13:34:51;1.67;;;1.15;;
47922;SDS011;33688;44.354;9.228;2022-08-05T13:37:17;1.50;;;1.02;;
47922;SDS011;33688;44.354;9.228;2022-08-05T13:39:45;2.08;;;1.20;;
47922;SDS011;33688;44.354;9.228;2022-08-05T13:42:14;2.75;;;1.10;;
47922;SDS011;33688;44.354;9.228;2022-08-05T13:44:41;1.40;;;0.93;;
47922;SDS011;33688;44.354;9.228;2022-08-05T13:47:10;1.45;;;1.20;;
47922;SDS011;33688;44.354;9.228;2022-08-05T13:49:38;4.72;;;1.15;;
47922;SDS011;33688;44.354;9.228;2022-08-05T13:52:11;1.30;;;1.20;;
47922;SDS011;33688;44.354;9.228;2022-08-05T13:54:38;2.83;;;1.60;;
47922;SDS011;33688;44.354;9.228;2022-08-05T13:57:03;3.35;;;1.23;;
47922;SDS011;33688;44.354;9.228;2022-08-05T13:59:29;1.23;;;1.08;;
47922;SDS011;33688;44.354;9.228;2022-08-05T14:01:55;1.55;;;1.05;;
47922;SDS011;33688;44.354;9.228;2022-08-05T14:04:25;1.10;;;1.00;;
47922;SDS011;33688;44.354;9.228;2022-08-05T14:07:18;2.25;;;1.05;;
47922;SDS011;33688;44.354;9.228;2022-08-05T14:09:44;1.10;;;1.00;;
47922;SDS011;33688;44.354;9.228;2022-08-05T14:12:10;1.38;;;1.27;;
47922;SDS011;33688;44.354;9.228;2022-08-05T14:14:38;1.08;;;0.90;;
47922;SDS011;33688;44.354;9.228;2022-08-05T14:17:04;2.95;;;1.38;;
47922;SDS011;33688;44.354;9.228;2022-08-05T14:19:33;1.42;;;1.08;;
47922;SDS011;33688;44.354;9.228;2022-08-05T14:21:58;2.00;;;1.15;;
47922;SDS011;33688;44.354;9.228;2022-08-05T14:24:27;4.43;;;1.10;;
47922;SDS011;33688;44.354;9.228;2022-08-05T14:26:53;1.50;;;1.10;;
47922;SDS011;33688;44.354;9.228;2022-08-05T14:29:18;2.15;;;1.30;;
47922;SDS011;33688;44.354;9.228;2022-08-05T14:31:44;3.80;;;1.35;;
47922;SDS011;33688;44.354;9.228;2022-08-05T14:34:10;2.70;;;1.50;;
47922;SDS011;33688;44.354;9.228;2022-08-05T14:36:35;2.15;;;1.42;;
47922;SDS011;33688;44.354;9.228;2022-08-05T14:39:01;3.17;;;1.30;;
47922;SDS011;33688;44.354;9.228;2022-08-05T14:41:26;4.00;;;1.23;;
47922;SDS011;33688;44.354;9.228;2022-08-05T14:43:52;4.30;;;1.30;;
47922;SDS011;33688;44.354;9.228;2022-08-05T14:46:20;4.43;;;1.27;;
47922;SDS011;33688;44.354;9.228;2022-08-05T14:48:46;1.20;;;1.00;;
47922;SDS011;33688;44.354;9.228;2022-08-05T14:51:12;3.63;;;1.58;;
47922;SDS011;33688;44.354;9.228;2022-08-05T14:53:37;2.08;;;1.00;;
47922;SDS011;33688;44.354;9.228;2022-08-05T14:56:03;2.70;;;1.05;;
47922;SDS011;33688;44.354;9.228;2022-08-05T14:58:29;2.13;;;1.38;;
47922;SDS011;33688;44.354;9.228;2022-08-05T15:00:54;1.88;;;1.08;;
47922;SDS011;33688;44.354;9.228;2022-08-05T15:03:20;1.33;;;1.23;;
47922;SDS011;33688;44.354;9.228;2022-08-05T15:05:46;2.88;;;1.17;;
47922;SDS011;33688;44.354;9.228;2022-08-05T15:08:11;2.00;;;1.10;;
47922;SDS011;33688;44.354;9.228;2022-08-05T15:10:37;1.48;;;1.38;;
47922;SDS011;33688;44.354;9.228;2022-08-05T15:13:03;4.68;;;1.40;;
47922;SDS011;33688;44.354;9.228;2022-08-05T15:15:29;7.50;;;1.25;;
47922;SDS011;33688;44.354;9.228;2022-08-05T15:17:54;1.63;;;1.20;;
47922;SDS011;33688;44.354;9.228;2022-08-05T15:20:20;3.33;;;1.17;;
47922;SDS011;33688;44.354;9.228;2022-08-05T15:22:46;2.47;;;1.13;;
47922;SDS011;33688;44.354;9.228;2022-08-05T15:25:15;6.50;;;1.77;;
47922;SDS011;33688;44.354;9.228;2022-08-05T15:27:41;5.50;;;1.45;;
47922;SDS011;33688;44.354;9.228;2022-08-05T15:30:10;2.03;;;1.27;;